sensor_id;sensor_type;location;lat;lon;timestamp;temperature;humidity
62007;DHT22;47963;53.008;6.754;2022-07-23T00:00:17;14.90;99.90
62007;DHT22;47963;53.008;6.754;2022-07-23T00:02:43;15.00;99.90
62007;DHT22;47963;53.008;6.754;2022-07-23T00:05:09;14.90;99.90
62007;DHT22;47963;53.008;6.754;2022-07-23T00:07:35;14.90;99.90
62007;DHT22;47963;53.008;6.754;2022-07-23T00:10:00;14.90;99.90
62007;DHT22;47963;53.008;6.754;2022-07-23T00:12:26;14.90;99.90
62007;DHT22;47963;53.008;6.754;2022-07-23T00:14:52;14.90;99.90
62007;DHT22;47963;53.008;6.754;2022-07-23T00:17:17;14.80;99.90
62007;DHT22;47963;53.008;6.754;2022-07-23T00:19:43;14.80;99.90
62007;DHT22;47963;53.008;6.754;2022-07-23T00:22:09;14.80;99.90
62007;DHT22;47963;53.008;6.754;2022-07-23T00:24:34;14.70;99.90
62007;DHT22;47963;53.008;6.754;2022-07-23T00:27:00;14.70;99.90
62007;DHT22;47963;53.008;6.754;2022-07-23T00:29:26;14.60;99.90
62007;DHT22;47963;53.008;6.754;2022-07-23T00:31:51;14.60;99.90
62007;DHT22;47963;53.008;6.754;2022-07-23T00:34:17;14.60;99.90
62007;DHT22;47963;53.008;6.754;2022-07-23T00:36:43;14.60;99.90
62007;DHT22;47963;53.008;6.754;2022-07-23T00:39:09;14.60;99.90
62007;DHT22;47963;53.008;6.754;2022-07-23T00:41:34;14.50;99.90
62007;DHT22;47963;53.008;6.754;2022-07-23T00:44:20;14.60;99.90
62007;DHT22;47963;53.008;6.754;2022-07-23T00:46:51;14.50;99.90
62007;DHT22;47963;53.008;6.754;2022-07-23T00:49:26;14.50;99.90
62007;DHT22;47963;53.008;6.754;2022-07-23T00:51:53;14.50;99.90
62007;DHT22;47963;53.008;6.754;2022-07-23T00:54:20;14.50;99.90
62007;DHT22;47963;53.008;6.754;2022-07-23T00:56:47;14.40;99.90
62007;DHT22;47963;53.008;6.754;2022-07-23T00:59:13;14.40;99.90
62007;DHT22;47963;53.008;6.754;2022-07-23T01:01:39;14.30;99.90
62007;DHT22;47963;53.008;6.754;2022-07-23T01:04:05;14.30;99.90
62007;DHT22;47963;53.008;6.754;2022-07-23T01:06:34;14.20;99.90
62007;DHT22;47963;53.008;6.754;2022-07-23T01:09:03;14.20;99.90
62007;DHT22;47963;53.008;6.754;2022-07-23T01:11:29;14.20;99.90
62007;DHT22;47963;53.008;6.754;2022-07-23T01:13:55;14.20;99.90
62007;DHT22;47963;53.008;6.754;2022-07-23T01:16:21;14.20;99.90
62007;DHT22;47963;53.008;6.754;2022-07-23T01:18:46;14.10;99.90
62007;DHT22;47963;53.008;6.754;2022-07-23T01:21:12;14.20;99.90
62007;DHT22;47963;53.008;6.754;2022-07-23T01:23:38;14.20;99.90
62007;DHT22;47963;53.008;6.754;2022-07-23T01:26:04;14.20;99.90
62007;DHT22;47963;53.008;6.754;2022-07-23T01:28:30;14.10;99.90
62007;DHT22;47963;53.008;6.754;2022-07-23T01:30:56;14.00;99.90
62007;DHT22;47963;53.008;6.754;2022-07-23T01:33:21;14.00;99.90
62007;DHT22;47963;53.008;6.754;2022-07-23T01:35:47;13.90;99.90
62007;DHT22;47963;53.008;6.754;2022-07-23T01:38:13;13.80;99.90
62007;DHT22;47963;53.008;6.754;2022-07-23T01:40:38;13.80;99.90
62007;DHT22;47963;53.008;6.754;2022-07-23T01:43:04;13.90;99.90
62007;DHT22;47963;53.008;6.754;2022-07-23T01:45:30;13.90;99.90
62007;DHT22;47963;53.008;6.754;2022-07-23T01:47:55;13.90;99.90
62007;DHT22;47963;53.008;6.754;2022-07-23T01:50:21;13.90;99.90
62007;DHT22;47963;53.008;6.754;2022-07-23T01:52:47;13.90;99.90
62007;DHT22;47963;53.008;6.754;2022-07-23T01:55:12;13.80;99.90
62007;DHT22;47963;53.008;6.754;2022-07-23T01:57:38;13.80;99.90
62007;DHT22;47963;53.008;6.754;2022-07-23T02:00:04;13.80;99.90
62007;DHT22;47963;53.008;6.754;2022-07-23T02:02:29;13.80;99.90
62007;DHT22;47963;53.008;6.754;2022-07-23T02:04:55;13.70;99.90
62007;DHT22;47963;53.008;6.754;2022-07-23T02:07:21;13.70;99.90
62007;DHT22;47963;53.008;6.754;2022-07-23T02:09:46;13.60;99.90
62007;DHT22;47963;53.008;6.754;2022-07-23T02:12:12;13.60;99.90
62007;DHT22;47963;53.008;6.754;2022-07-23T02:14:38;13.60;99.90
62007;DHT22;47963;53.008;6.754;2022-07-23T02:17:04;13.50;99.90
62007;DHT22;47963;53.008;6.754;2022-07-23T02:19:30;13.50;99.90
62007;DHT22;47963;53.008;6.754;2022-07-23T02:21:55;13.50;99.90
62007;DHT22;47963;53.008;6.754;2022-07-23T02:24:21;13.50;99.90
62007;DHT22;47963;53.008;6.754;2022-07-23T02:26:47;13.40;99.90
62007;DHT22;47963;53.008;6.754;2022-07-23T02:29:12;13.30;99.90
62007;DHT22;47963;53.008;6.754;2022-07-23T02:31:38;13.30;99.90
62007;DHT22;47963;53.008;6.754;2022-07-23T02:34:04;13.30;99.90
62007;DHT22;47963;53.008;6.754;2022-07-23T02:36:30;13.30;99.90
62007;DHT22;47963;53.008;6.754;2022-07-23T02:38:55;13.40;99.90
62007;DHT22;47963;53.008;6.754;2022-07-23T02:41:21;13.30;99.90
62007;DHT22;47963;53.008;6.754;2022-07-23T02:43:49;13.30;99.90
62007;DHT22;47963;53.008;6.754;2022-07-23T02:46:14;13.30;99.90
62007;DHT22;47963;53.008;6.754;2022-07-23T02:48:40;13.20;99.90
62007;DHT22;47963;53.008;6.754;2022-07-23T02:51:06;13.20;99.90
62007;DHT22;47963;53.008;6.754;2022-07-23T02:53:31;13.20;99.90
62007;DHT22;47963;53.008;6.754;2022-07-23T02:55:57;13.20;99.90
62007;DHT22;47963;53.008;6.754;2022-07-23T02:58:23;13.20;99.90
62007;DHT22;47963;53.008;6.754;2022-07-23T03:00:50;13.20;99.90
62007;DHT22;47963;53.008;6.754;2022-07-23T03:03:16;13.20;99.90
62007;DHT22;47963;53.008;6.754;2022-07-23T03:05:41;13.30;99.90
62007;DHT22;47963;53.008;6.754;2022-07-23T03:08:07;13.20;99.90
62007;DHT22;47963;53.008;6.754;2022-07-23T03:10:33;13.20;99.90
62007;DHT22;47963;53.008;6.754;2022-07-23T03:12:58;13.20;99.90
62007;DHT22;47963;53.008;6.754;2022-07-23T03:15:24;13.10;99.90
62007;DHT22;47963;53.008;6.754;2022-07-23T03:17:49;13.10;99.90
62007;DHT22;47963;53.008;6.754;2022-07-23T03:20:15;13.10;99.90
62007;DHT22;47963;53.008;6.754;2022-07-23T03:22:40;13.00;99.90
62007;DHT22;47963;53.008;6.754;2022-07-23T03:25:07;13.00;99.90
62007;DHT22;47963;53.008;6.754;2022-07-23T03:27:33;13.00;99.90
62007;DHT22;47963;53.008;6.754;2022-07-23T03:29:59;13.00;99.90
62007;DHT22;47963;53.008;6.754;2022-07-23T03:32:25;13.00;99.90
62007;DHT22;47963;53.008;6.754;2022-07-23T03:34:51;12.90;99.90
62007;DHT22;47963;53.008;6.754;2022-07-23T03:37:18;12.90;99.90
62007;DHT22;47963;53.008;6.754;2022-07-23T03:39:44;12.90;99.90
62007;DHT22;47963;53.008;6.754;2022-07-23T03:42:10;12.90;99.90
62007;DHT22;47963;53.008;6.754;2022-07-23T03:44:36;12.90;99.90
62007;DHT22;47963;53.008;6.754;2022-07-23T03:47:03;12.90;99.90
62007;DHT22;47963;53.008;6.754;2022-07-23T03:49:29;12.90;99.90
62007;DHT22;47963;53.008;6.754;2022-07-23T03:51:54;12.90;99.90
62007;DHT22;47963;53.008;6.754;2022-07-23T03:54:20;12.90;99.90
62007;DHT22;47963;53.008;6.754;2022-07-23T03:56:46;12.90;99.90
62007;DHT22;47963;53.008;6.754;2022-07-23T03:59:11;12.90;99.90
62007;DHT22;47963;53.008;6.754;2022-07-23T04:01:37;12.90;99.90
62007;DHT22;47963;53.008;6.754;2022-07-23T04:04:03;12.90;99.90
62007;DHT22;47963;53.008;6.754;2022-07-23T04:06:29;12.90;99.90
62007;DHT22;47963;53.008;6.754;2022-07-23T04:08:55;12.80;99.90
62007;DHT22;47963;53.008;6.754;2022-07-23T04:11:20;12.90;99.90
62007;DHT22;47963;53.008;6.754;2022-07-23T04:13:46;12.90;99.90
62007;DHT22;47963;53.008;6.754;2022-07-23T04:16:12;12.90;99.90
62007;DHT22;47963;53.008;6.754;2022-07-23T04:18:38;12.80;99.90
62007;DHT22;47963;53.008;6.754;2022-07-23T04:21:03;12.70;99.90
62007;DHT22;47963;53.008;6.754;2022-07-23T04:23:29;12.70;99.90
62007;DHT22;47963;53.008;6.754;2022-07-23T04:25:55;12.70;99.90
62007;DHT22;47963;53.008;6.754;2022-07-23T04:28:20;12.70;99.90
62007;DHT22;47963;53.008;6.754;2022-07-23T04:30:46;12.70;99.90
62007;DHT22;47963;53.008;6.754;2022-07-23T04:33:12;12.70;99.90
62007;DHT22;47963;53.008;6.754;2022-07-23T04:35:37;12.70;99.90
62007;DHT22;47963;53.008;6.754;2022-07-23T04:38:03;12.60;99.90
62007;DHT22;47963;53.008;6.754;2022-07-23T04:40:29;12.70;99.90
62007;DHT22;47963;53.008;6.754;2022-07-23T04:42:57;12.60;99.90
62007;DHT22;47963;53.008;6.754;2022-07-23T04:45:22;12.60;99.90
62007;DHT22;47963;53.008;6.754;2022-07-23T04:47:51;12.60;99.90
62007;DHT22;47963;53.008;6.754;2022-07-23T04:50:16;12.60;99.90
62007;DHT22;47963;53.008;6.754;2022-07-23T04:52:47;12.50;99.90
62007;DHT22;47963;53.008;6.754;2022-07-23T04:55:12;12.60;99.90
62007;DHT22;47963;53.008;6.754;2022-07-23T04:57:38;12.60;99.90
62007;DHT22;47963;53.008;6.754;2022-07-23T05:00:04;12.60;99.90
62007;DHT22;47963;53.008;6.754;2022-07-23T05:02:30;12.70;99.90
62007;DHT22;47963;53.008;6.754;2022-07-23T05:04:55;12.70;99.90
62007;DHT22;47963;53.008;6.754;2022-07-23T05:07:21;12.80;99.90
62007;DHT22;47963;53.008;6.754;2022-07-23T05:09:46;12.80;99.90
62007;DHT22;47963;53.008;6.754;2022-07-23T05:12:12;12.90;99.90
62007;DHT22;47963;53.008;6.754;2022-07-23T05:14:38;12.90;99.90
62007;DHT22;47963;53.008;6.754;2022-07-23T05:17:03;13.00;99.90
62007;DHT22;47963;53.008;6.754;2022-07-23T05:19:29;13.00;99.90
62007;DHT22;47963;53.008;6.754;2022-07-23T05:21:54;13.10;99.90
62007;DHT22;47963;53.008;6.754;2022-07-23T05:24:20;13.10;99.90
62007;DHT22;47963;53.008;6.754;2022-07-23T05:26:46;13.20;99.90
62007;DHT22;47963;53.008;6.754;2022-07-23T05:29:11;13.30;99.90
62007;DHT22;47963;53.008;6.754;2022-07-23T05:31:37;13.40;99.90
62007;DHT22;47963;53.008;6.754;2022-07-23T05:34:03;13.50;99.90
62007;DHT22;47963;53.008;6.754;2022-07-23T05:36:31;13.50;99.90
62007;DHT22;47963;53.008;6.754;2022-07-23T05:38:56;13.60;99.90
62007;DHT22;47963;53.008;6.754;2022-07-23T05:41:22;13.60;99.90
62007;DHT22;47963;53.008;6.754;2022-07-23T05:43:48;13.70;99.90
62007;DHT22;47963;53.008;6.754;2022-07-23T05:46:13;13.80;99.90
62007;DHT22;47963;53.008;6.754;2022-07-23T05:48:39;13.80;99.90
62007;DHT22;47963;53.008;6.754;2022-07-23T05:51:06;13.90;99.90
62007;DHT22;47963;53.008;6.754;2022-07-23T05:53:33;13.90;99.90
62007;DHT22;47963;53.008;6.754;2022-07-23T05:55:59;14.00;99.90
62007;DHT22;47963;53.008;6.754;2022-07-23T05:58:25;14.00;99.90
62007;DHT22;47963;53.008;6.754;2022-07-23T06:00:50;14.10;99.90
62007;DHT22;47963;53.008;6.754;2022-07-23T06:03:16;14.20;99.90
62007;DHT22;47963;53.008;6.754;2022-07-23T06:05:42;14.30;99.90
62007;DHT22;47963;53.008;6.754;2022-07-23T06:08:08;14.40;99.90
62007;DHT22;47963;53.008;6.754;2022-07-23T06:10:33;14.50;99.90
62007;DHT22;47963;53.008;6.754;2022-07-23T06:12:59;14.50;99.90
62007;DHT22;47963;53.008;6.754;2022-07-23T06:15:25;14.60;99.90
62007;DHT22;47963;53.008;6.754;2022-07-23T06:17:50;14.70;99.90
62007;DHT22;47963;53.008;6.754;2022-07-23T06:20:16;14.70;99.90
62007;DHT22;47963;53.008;6.754;2022-07-23T06:22:42;14.80;99.90
62007;DHT22;47963;53.008;6.754;2022-07-23T06:25:08;14.80;99.90
62007;DHT22;47963;53.008;6.754;2022-07-23T06:27:34;14.80;99.90
62007;DHT22;47963;53.008;6.754;2022-07-23T06:29:59;15.00;99.90
62007;DHT22;47963;53.008;6.754;2022-07-23T06:32:25;15.10;99.90
62007;DHT22;47963;53.008;6.754;2022-07-23T06:34:50;15.20;99.90
62007;DHT22;47963;53.008;6.754;2022-07-23T06:37:16;15.20;99.90
62007;DHT22;47963;53.008;6.754;2022-07-23T06:39:42;15.30;99.90
62007;DHT22;47963;53.008;6.754;2022-07-23T06:42:08;15.30;99.90
62007;DHT22;47963;53.008;6.754;2022-07-23T06:44:33;15.30;99.90
62007;DHT22;47963;53.008;6.754;2022-07-23T06:46:59;15.40;99.90
62007;DHT22;47963;53.008;6.754;2022-07-23T06:49:25;15.40;99.90
62007;DHT22;47963;53.008;6.754;2022-07-23T06:51:50;15.50;99.90
62007;DHT22;47963;53.008;6.754;2022-07-23T06:54:16;15.60;99.90
62007;DHT22;47963;53.008;6.754;2022-07-23T06:56:42;15.60;99.90
62007;DHT22;47963;53.008;6.754;2022-07-23T06:59:08;15.70;99.90
62007;DHT22;47963;53.008;6.754;2022-07-23T07:01:34;15.70;99.90
62007;DHT22;47963;53.008;6.754;2022-07-23T07:03:59;15.80;99.90
62007;DHT22;47963;53.008;6.754;2022-07-23T07:06:25;15.90;99.90
62007;DHT22;47963;53.008;6.754;2022-07-23T07:08:51;16.00;99.90
62007;DHT22;47963;53.008;6.754;2022-07-23T07:11:17;16.00;99.90
62007;DHT22;47963;53.008;6.754;2022-07-23T07:13:42;16.10;99.90
62007;DHT22;47963;53.008;6.754;2022-07-23T07:16:08;16.10;99.90
62007;DHT22;47963;53.008;6.754;2022-07-23T07:18:34;16.30;99.90
62007;DHT22;47963;53.008;6.754;2022-07-23T07:20:59;16.40;99.90
62007;DHT22;47963;53.008;6.754;2022-07-23T07:23:25;16.50;99.90
62007;DHT22;47963;53.008;6.754;2022-07-23T07:25:50;16.60;99.90
62007;DHT22;47963;53.008;6.754;2022-07-23T07:28:16;16.80;99.90
62007;DHT22;47963;53.008;6.754;2022-07-23T07:30:42;16.90;99.90
62007;DHT22;47963;53.008;6.754;2022-07-23T07:33:07;16.80;99.90
62007;DHT22;47963;53.008;6.754;2022-07-23T07:35:33;16.80;99.90
62007;DHT22;47963;53.008;6.754;2022-07-23T07:37:59;16.70;99.90
62007;DHT22;47963;53.008;6.754;2022-07-23T07:40:25;16.70;99.90
62007;DHT22;47963;53.008;6.754;2022-07-23T07:42:52;16.60;99.90
62007;DHT22;47963;53.008;6.754;2022-07-23T07:45:22;16.60;99.90
62007;DHT22;47963;53.008;6.754;2022-07-23T07:47:48;16.80;99.90
62007;DHT22;47963;53.008;6.754;2022-07-23T07:50:14;16.90;99.90
62007;DHT22;47963;53.008;6.754;2022-07-23T07:52:40;17.00;99.90
62007;DHT22;47963;53.008;6.754;2022-07-23T07:55:07;17.00;99.90
62007;DHT22;47963;53.008;6.754;2022-07-23T07:57:33;17.00;99.90
62007;DHT22;47963;53.008;6.754;2022-07-23T07:59:59;17.00;99.90
62007;DHT22;47963;53.008;6.754;2022-07-23T08:02:25;16.90;99.90
62007;DHT22;47963;53.008;6.754;2022-07-23T08:04:51;16.80;99.90
62007;DHT22;47963;53.008;6.754;2022-07-23T08:07:16;16.80;99.90
62007;DHT22;47963;53.008;6.754;2022-07-23T08:09:42;16.70;99.90
62007;DHT22;47963;53.008;6.754;2022-07-23T08:12:08;16.70;99.90
62007;DHT22;47963;53.008;6.754;2022-07-23T08:14:33;16.60;99.90
62007;DHT22;47963;53.008;6.754;2022-07-23T08:16:59;16.50;99.90
62007;DHT22;47963;53.008;6.754;2022-07-23T08:19:25;16.70;99.90
62007;DHT22;47963;53.008;6.754;2022-07-23T08:21:50;16.90;99.90
62007;DHT22;47963;53.008;6.754;2022-07-23T08:24:16;17.20;99.90
62007;DHT22;47963;53.008;6.754;2022-07-23T08:26:42;17.40;99.90
62007;DHT22;47963;53.008;6.754;2022-07-23T08:29:08;17.60;99.90
62007;DHT22;47963;53.008;6.754;2022-07-23T08:31:33;17.80;99.90
62007;DHT22;47963;53.008;6.754;2022-07-23T08:34:00;17.80;99.90
62007;DHT22;47963;53.008;6.754;2022-07-23T08:36:25;17.70;99.90
62007;DHT22;47963;53.008;6.754;2022-07-23T08:38:53;17.40;99.90
62007;DHT22;47963;53.008;6.754;2022-07-23T08:41:20;17.40;99.90
62007;DHT22;47963;53.008;6.754;2022-07-23T08:43:46;17.30;99.90
62007;DHT22;47963;53.008;6.754;2022-07-23T08:46:13;17.30;99.90
62007;DHT22;47963;53.008;6.754;2022-07-23T08:48:39;17.40;99.90
62007;DHT22;47963;53.008;6.754;2022-07-23T08:51:06;17.70;99.90
62007;DHT22;47963;53.008;6.754;2022-07-23T08:53:33;17.90;99.90
62007;DHT22;47963;53.008;6.754;2022-07-23T08:56:01;17.90;99.90
62007;DHT22;47963;53.008;6.754;2022-07-23T08:58:28;17.90;99.90
62007;DHT22;47963;53.008;6.754;2022-07-23T09:00:54;17.90;99.90
62007;DHT22;47963;53.008;6.754;2022-07-23T09:03:32;17.90;99.90
62007;DHT22;47963;53.008;6.754;2022-07-23T09:05:59;17.80;99.90
62007;DHT22;47963;53.008;6.754;2022-07-23T09:08:46;17.90;99.90
62007;DHT22;47963;53.008;6.754;2022-07-23T09:11:16;18.30;99.90
62007;DHT22;47963;53.008;6.754;2022-07-23T09:13:45;18.40;99.90
62007;DHT22;47963;53.008;6.754;2022-07-23T09:16:20;18.50;99.90
62007;DHT22;47963;53.008;6.754;2022-07-23T09:18:53;18.50;99.90
62007;DHT22;47963;53.008;6.754;2022-07-23T09:21:28;18.70;99.90
62007;DHT22;47963;53.008;6.754;2022-07-23T09:24:11;18.70;99.90
62007;DHT22;47963;53.008;6.754;2022-07-23T09:26:45;18.40;99.90
62007;DHT22;47963;53.008;6.754;2022-07-23T09:29:16;18.40;99.90
62007;DHT22;47963;53.008;6.754;2022-07-23T09:31:44;18.60;99.90
62007;DHT22;47963;53.008;6.754;2022-07-23T09:36:46;19.10;99.90
62007;DHT22;47963;53.008;6.754;2022-07-23T09:39:13;19.00;99.90
62007;DHT22;47963;53.008;6.754;2022-07-23T09:41:42;19.00;99.90
62007;DHT22;47963;53.008;6.754;2022-07-23T09:44:14;18.80;99.90
62007;DHT22;47963;53.008;6.754;2022-07-23T09:46:42;19.00;99.90
62007;DHT22;47963;53.008;6.754;2022-07-23T09:51:54;19.00;99.90
62007;DHT22;47963;53.008;6.754;2022-07-23T09:54:29;19.00;99.90
62007;DHT22;47963;53.008;6.754;2022-07-23T09:56:59;18.90;99.90
62007;DHT22;47963;53.008;6.754;2022-07-23T09:59:29;19.00;99.90
62007;DHT22;47963;53.008;6.754;2022-07-23T10:01:57;19.10;99.90
62007;DHT22;47963;53.008;6.754;2022-07-23T10:04:25;19.10;99.90
62007;DHT22;47963;53.008;6.754;2022-07-23T10:06:53;19.20;99.90
62007;DHT22;47963;53.008;6.754;2022-07-23T10:09:24;19.30;99.90
62007;DHT22;47963;53.008;6.754;2022-07-23T10:11:51;19.30;99.90
62007;DHT22;47963;53.008;6.754;2022-07-23T10:14:18;19.30;99.90
62007;DHT22;47963;53.008;6.754;2022-07-23T10:16:44;19.40;99.90
62007;DHT22;47963;53.008;6.754;2022-07-23T10:19:09;19.50;99.90
62007;DHT22;47963;53.008;6.754;2022-07-23T10:21:58;19.30;99.90
62007;DHT22;47963;53.008;6.754;2022-07-23T10:27:37;19.30;99.90
62007;DHT22;47963;53.008;6.754;2022-07-23T10:30:09;19.20;99.90
62007;DHT22;47963;53.008;6.754;2022-07-23T10:38:51;19.40;99.90
62007;DHT22;47963;53.008;6.754;2022-07-23T10:41:35;19.60;99.90
62007;DHT22;47963;53.008;6.754;2022-07-23T10:44:16;19.60;99.90
62007;DHT22;47963;53.008;6.754;2022-07-23T10:47:03;19.60;99.90
62007;DHT22;47963;53.008;6.754;2022-07-23T10:49:47;19.40;99.90
62007;DHT22;47963;53.008;6.754;2022-07-23T10:52:26;19.40;99.90
62007;DHT22;47963;53.008;6.754;2022-07-23T10:57:26;19.40;99.90
62007;DHT22;47963;53.008;6.754;2022-07-23T11:02:33;19.40;99.90
62007;DHT22;47963;53.008;6.754;2022-07-23T11:07:27;19.50;99.90
62007;DHT22;47963;53.008;6.754;2022-07-23T11:09:55;19.60;99.90
62007;DHT22;47963;53.008;6.754;2022-07-23T11:17:34;19.60;99.90
62007;DHT22;47963;53.008;6.754;2022-07-23T11:22:38;19.70;99.90
62007;DHT22;47963;53.008;6.754;2022-07-23T11:25:05;19.70;99.90
62007;DHT22;47963;53.008;6.754;2022-07-23T11:27:42;19.80;99.90
62007;DHT22;47963;53.008;6.754;2022-07-23T11:30:10;20.00;99.90
62007;DHT22;47963;53.008;6.754;2022-07-23T11:32:38;20.40;99.90
62007;DHT22;47963;53.008;6.754;2022-07-23T11:35:27;20.80;99.90
62007;DHT22;47963;53.008;6.754;2022-07-23T11:38:02;20.50;99.90
62007;DHT22;47963;53.008;6.754;2022-07-23T11:40:28;20.40;99.90
62007;DHT22;47963;53.008;6.754;2022-07-23T11:42:55;20.40;99.90
62007;DHT22;47963;53.008;6.754;2022-07-23T11:45:21;20.50;99.90
62007;DHT22;47963;53.008;6.754;2022-07-23T11:47:47;20.40;99.90
62007;DHT22;47963;53.008;6.754;2022-07-23T11:50:13;20.30;99.90
62007;DHT22;47963;53.008;6.754;2022-07-23T11:52:39;20.50;99.90
62007;DHT22;47963;53.008;6.754;2022-07-23T11:55:07;20.50;99.90
62007;DHT22;47963;53.008;6.754;2022-07-23T11:57:36;20.70;99.90
62007;DHT22;47963;53.008;6.754;2022-07-23T12:00:14;20.90;99.90
62007;DHT22;47963;53.008;6.754;2022-07-23T12:02:43;20.80;99.90
62007;DHT22;47963;53.008;6.754;2022-07-23T12:05:23;20.50;99.90
62007;DHT22;47963;53.008;6.754;2022-07-23T12:07:51;20.60;99.90
62007;DHT22;47963;53.008;6.754;2022-07-23T12:10:27;20.60;99.90
62007;DHT22;47963;53.008;6.754;2022-07-23T12:12:58;21.00;99.90
62007;DHT22;47963;53.008;6.754;2022-07-23T12:15:29;20.70;99.90
62007;DHT22;47963;53.008;6.754;2022-07-23T12:17:57;20.50;99.90
62007;DHT22;47963;53.008;6.754;2022-07-23T12:20:25;20.80;99.90
62007;DHT22;47963;53.008;6.754;2022-07-23T12:22:56;20.80;99.90
62007;DHT22;47963;53.008;6.754;2022-07-23T12:25:24;20.80;99.90
62007;DHT22;47963;53.008;6.754;2022-07-23T12:28:01;20.90;99.90
62007;DHT22;47963;53.008;6.754;2022-07-23T12:30:33;20.90;99.90
62007;DHT22;47963;53.008;6.754;2022-07-23T12:32:59;20.90;99.90
62007;DHT22;47963;53.008;6.754;2022-07-23T12:35:32;20.90;99.90
62007;DHT22;47963;53.008;6.754;2022-07-23T12:38:04;20.90;99.90
62007;DHT22;47963;53.008;6.754;2022-07-23T12:40:41;20.70;99.90
62007;DHT22;47963;53.008;6.754;2022-07-23T12:43:20;20.70;99.90
62007;DHT22;47963;53.008;6.754;2022-07-23T12:48:30;20.80;99.90
62007;DHT22;47963;53.008;6.754;2022-07-23T12:50:57;21.00;99.90
62007;DHT22;47963;53.008;6.754;2022-07-23T12:58:25;21.70;99.90
62007;DHT22;47963;53.008;6.754;2022-07-23T13:00:59;21.80;99.90
62007;DHT22;47963;53.008;6.754;2022-07-23T13:03:27;21.90;99.90
62007;DHT22;47963;53.008;6.754;2022-07-23T13:05:54;22.20;99.90
62007;DHT22;47963;53.008;6.754;2022-07-23T13:08:20;22.10;99.90
62007;DHT22;47963;53.008;6.754;2022-07-23T13:10:47;22.00;99.90
62007;DHT22;47963;53.008;6.754;2022-07-23T13:13:15;21.80;99.90
62007;DHT22;47963;53.008;6.754;2022-07-23T13:15:42;22.20;99.90
62007;DHT22;47963;53.008;6.754;2022-07-23T13:18:07;22.10;99.90
62007;DHT22;47963;53.008;6.754;2022-07-23T13:20:33;21.90;99.90
62007;DHT22;47963;53.008;6.754;2022-07-23T13:23:00;22.10;99.90
62007;DHT22;47963;53.008;6.754;2022-07-23T13:25:26;22.30;99.90
62007;DHT22;47963;53.008;6.754;2022-07-23T13:27:52;22.70;99.90
62007;DHT22;47963;53.008;6.754;2022-07-23T13:30:17;22.60;99.90
62007;DHT22;47963;53.008;6.754;2022-07-23T13:32:43;22.60;99.90
62007;DHT22;47963;53.008;6.754;2022-07-23T13:35:09;22.60;99.90
62007;DHT22;47963;53.008;6.754;2022-07-23T13:37:35;22.20;99.90
62007;DHT22;47963;53.008;6.754;2022-07-23T13:40:01;22.40;99.90
62007;DHT22;47963;53.008;6.754;2022-07-23T13:42:27;22.70;99.90
62007;DHT22;47963;53.008;6.754;2022-07-23T13:44:55;23.00;99.90
62007;DHT22;47963;53.008;6.754;2022-07-23T13:47:21;22.60;99.90
62007;DHT22;47963;53.008;6.754;2022-07-23T13:49:47;22.30;99.90
62007;DHT22;47963;53.008;6.754;2022-07-23T13:52:12;22.40;99.90
62007;DHT22;47963;53.008;6.754;2022-07-23T13:54:38;22.40;99.90
62007;DHT22;47963;53.008;6.754;2022-07-23T13:57:04;22.30;99.90
62007;DHT22;47963;53.008;6.754;2022-07-23T13:59:29;22.10;99.90
62007;DHT22;47963;53.008;6.754;2022-07-23T14:01:55;22.50;99.90
62007;DHT22;47963;53.008;6.754;2022-07-23T14:04:22;22.90;99.90
62007;DHT22;47963;53.008;6.754;2022-07-23T14:06:47;23.10;99.90
62007;DHT22;47963;53.008;6.754;2022-07-23T14:09:13;23.50;99.90
62007;DHT22;47963;53.008;6.754;2022-07-23T14:11:39;23.80;99.90
62007;DHT22;47963;53.008;6.754;2022-07-23T14:14:04;23.90;99.90
62007;DHT22;47963;53.008;6.754;2022-07-23T14:16:30;24.00;99.90
62007;DHT22;47963;53.008;6.754;2022-07-23T14:18:56;23.80;99.90
62007;DHT22;47963;53.008;6.754;2022-07-23T14:21:22;23.40;99.90
62007;DHT22;47963;53.008;6.754;2022-07-23T14:23:47;23.00;99.90
62007;DHT22;47963;53.008;6.754;2022-07-23T14:26:13;23.00;99.90
62007;DHT22;47963;53.008;6.754;2022-07-23T14:28:39;23.00;99.90
62007;DHT22;47963;53.008;6.754;2022-07-23T14:31:04;23.10;99.90
62007;DHT22;47963;53.008;6.754;2022-07-23T14:33:30;23.00;99.90
62007;DHT22;47963;53.008;6.754;2022-07-23T14:35:56;23.50;99.90
62007;DHT22;47963;53.008;6.754;2022-07-23T14:38:21;23.90;99.90
62007;DHT22;47963;53.008;6.754;2022-07-23T14:40:47;23.80;99.90
62007;DHT22;47963;53.008;6.754;2022-07-23T14:43:13;23.30;99.90
62007;DHT22;47963;53.008;6.754;2022-07-23T14:45:39;23.30;99.90
62007;DHT22;47963;53.008;6.754;2022-07-23T14:48:05;23.50;99.90
62007;DHT22;47963;53.008;6.754;2022-07-23T14:50:30;23.20;99.90
62007;DHT22;47963;53.008;6.754;2022-07-23T14:52:56;23.20;99.90
62007;DHT22;47963;53.008;6.754;2022-07-23T14:55:22;23.40;99.90
62007;DHT22;47963;53.008;6.754;2022-07-23T14:57:47;23.80;99.90
62007;DHT22;47963;53.008;6.754;2022-07-23T15:00:13;24.70;99.90
62007;DHT22;47963;53.008;6.754;2022-07-23T15:02:39;24.40;99.70
62007;DHT22;47963;53.008;6.754;2022-07-23T15:05:05;24.90;99.30
62007;DHT22;47963;53.008;6.754;2022-07-23T15:07:31;25.30;98.30
62007;DHT22;47963;53.008;6.754;2022-07-23T15:09:58;25.40;99.10
62007;DHT22;47963;53.008;6.754;2022-07-23T15:12:24;25.40;99.90
62007;DHT22;47963;53.008;6.754;2022-07-23T15:14:50;25.00;92.70
62007;DHT22;47963;53.008;6.754;2022-07-23T15:17:16;24.40;96.20
62007;DHT22;47963;53.008;6.754;2022-07-23T15:19:42;24.50;96.30
62007;DHT22;47963;53.008;6.754;2022-07-23T15:22:07;24.10;95.00
62007;DHT22;47963;53.008;6.754;2022-07-23T15:24:33;24.20;98.70
62007;DHT22;47963;53.008;6.754;2022-07-23T15:26:59;23.80;96.50
62007;DHT22;47963;53.008;6.754;2022-07-23T15:29:25;23.90;96.70
62007;DHT22;47963;53.008;6.754;2022-07-23T15:31:50;23.80;98.40
62007;DHT22;47963;53.008;6.754;2022-07-23T15:34:16;23.50;99.40
62007;DHT22;47963;53.008;6.754;2022-07-23T15:36:42;23.50;99.90
62007;DHT22;47963;53.008;6.754;2022-07-23T15:39:07;23.20;99.90
62007;DHT22;47963;53.008;6.754;2022-07-23T15:41:33;23.20;99.90
62007;DHT22;47963;53.008;6.754;2022-07-23T15:43:59;23.30;99.90
62007;DHT22;47963;53.008;6.754;2022-07-23T15:46:25;23.20;99.90
62007;DHT22;47963;53.008;6.754;2022-07-23T15:48:51;23.00;98.80
62007;DHT22;47963;53.008;6.754;2022-07-23T15:51:17;22.80;97.40
62007;DHT22;47963;53.008;6.754;2022-07-23T15:53:43;22.60;97.50
62007;DHT22;47963;53.008;6.754;2022-07-23T15:56:09;22.80;99.90
62007;DHT22;47963;53.008;6.754;2022-07-23T15:58:35;22.90;99.90
62007;DHT22;47963;53.008;6.754;2022-07-23T16:01:02;22.90;99.20
62007;DHT22;47963;53.008;6.754;2022-07-23T16:03:30;22.70;99.40
62007;DHT22;47963;53.008;6.754;2022-07-23T16:05:56;22.60;99.90